Time;durP1;ratioP1;P1;durP2;ratioP2;P2;SDS_P1;SDS_P2;PMS_P1;PMS_P2;Temp;Humidity;BMP_temperature;BMP_pressure;BME280_temperature;BME280_humidity;BME280_pressure;Samples;Min_cycle;Max_cycle;Signal;HPM_P1;HPM_P2
2021/11/05 00:01:19;;;;;;;0.70;0.10;;;18.80;54.90;;;;;;5074952;28;20041;-41
2021/11/05 00:03:46;;;;;;;0.60;0.10;;;18.80;54.80;;;;;;5074383;28;20147;-41
2021/11/05 00:06:14;;;;;;;0.93;0.10;;;18.80;54.90;;;;;;5078842;28;20060;-41
2021/11/05 00:08:41;;;;;;;1.30;0.10;;;18.80;54.80;;;;;;5078089;28;20055;-41
2021/11/05 00:11:08;;;;;;;0.32;0.10;;;18.70;54.80;;;;;;5084116;28;20046;-41
2021/11/05 00:13:35;;;;;;;0.50;0.20;;;18.70;54.80;;;;;;5069472;28;20042;-41
2021/11/05 00:16:04;;;;;;;0.20;0.10;;;18.70;54.80;;;;;;5061333;28;20048;-41
2021/11/05 00:18:31;;;;;;;0.75;0.10;;;18.70;54.80;;;;;;5069717;28;20117;-40
2021/11/05 00:20:58;;;;;;;2.45;0.30;;;18.70;54.70;;;;;;5071691;28;20063;-41
2021/11/05 00:23:25;;;;;;;0.50;0.13;;;18.70;54.70;;;;;;5084109;28;20135;-43
2021/11/05 00:25:52;;;;;;;0.63;0.10;;;18.70;54.70;;;;;;5073059;28;20048;-40
2021/11/05 00:28:19;;;;;;;0.52;0.10;;;18.70;54.70;;;;;;5076019;28;20052;-40
2021/11/05 00:30:47;;;;;;;2.65;0.30;;;18.70;54.70;;;;;;5075667;28;20118;-42
2021/11/05 00:33:15;;;;;;;0.90;0.10;;;18.70;54.70;;;;;;5082444;28;20040;-40
2021/11/05 00:35:42;;;;;;;0.50;0.10;;;18.70;54.70;;;;;;5076100;28;20447;-40
2021/11/05 00:38:09;;;;;;;0.77;0.20;;;18.70;54.70;;;;;;5081157;28;20052;-40
2021/11/05 00:40:37;;;;;;;0.30;0.10;;;18.70;54.70;;;;;;5074128;28;20066;-40
2021/11/05 00:43:04;;;;;;;1.25;0.28;;;18.70;54.70;;;;;;5075835;28;20075;-41
2021/11/05 00:45:31;;;;;;;0.82;0.10;;;18.70;54.70;;;;;;5073440;28;20424;-41
2021/11/05 00:47:58;;;;;;;1.25;0.10;;;18.70;54.60;;;;;;5078007;28;20148;-41
2021/11/05 00:50:27;;;;;;;0.30;0.10;;;18.70;54.70;;;;;;5081383;28;20471;-41
2021/11/05 00:52:54;;;;;;;1.50;0.10;;;18.70;54.60;;;;;;5075921;28;20050;-41
2021/11/05 00:55:21;;;;;;;0.10;0.10;;;18.70;54.60;;;;;;5072590;28;20390;-41
2021/11/05 00:57:48;;;;;;;1.17;0.20;;;18.70;55.20;;;;;;5074083;28;20047;-41
2021/11/05 01:00:16;;;;;;;0.68;0.40;;;18.70;54.60;;;;;;5077611;28;20518;-41
2021/11/05 01:02:44;;;;;;;1.55;0.20;;;18.70;54.60;;;;;;5079685;28;20575;-41
2021/11/05 01:05:12;;;;;;;2.28;0.32;;;18.70;54.60;;;;;;5082178;28;20040;-41
2021/11/05 01:07:41;;;;;;;3.47;0.25;;;18.70;54.60;;;;;;5073624;28;20051;-41
2021/11/05 01:10:10;;;;;;;1.60;0.10;;;18.70;54.60;;;;;;5076339;28;20044;-41
2021/11/05 01:12:37;;;;;;;1.15;0.22;;;18.70;54.50;;;;;;5075648;28;20036;-41
2021/11/05 01:15:05;;;;;;;1.95;0.20;;;18.70;54.50;;;;;;5077167;28;20049;-46
2021/11/05 01:17:34;;;;;;;0.10;0.10;;;18.70;54.50;;;;;;5075829;28;20542;-41
2021/11/05 01:20:01;;;;;;;1.52;0.28;;;18.70;54.50;;;;;;5079592;28;20074;-41
2021/11/05 01:22:28;;;;;;;0.45;0.10;;;18.60;55.10;;;;;;5073710;28;20040;-42
2021/11/05 01:24:56;;;;;;;1.13;0.10;;;18.70;54.50;;;;;;5070219;28;20047;-41
2021/11/05 01:27:23;;;;;;;1.02;0.10;;;18.70;54.50;;;;;;5073311;28;20382;-41
2021/11/05 01:29:52;;;;;;;1.83;0.10;;;18.60;54.40;;;;;;5074630;28;20048;-41
2021/11/05 01:32:19;;;;;;;0.68;0.10;;;18.60;54.40;;;;;;5082789;28;20079;-41
2021/11/05 01:34:47;;;;;;;3.92;0.22;;;18.60;54.40;;;;;;5074172;28;20048;-41
2021/11/05 01:37:14;;;;;;;1.55;0.10;;;18.60;54.40;;;;;;5071338;28;20591;-41
2021/11/05 01:39:41;;;;;;;1.17;0.10;;;18.60;54.40;;;;;;5074936;28;20044;-41
2021/11/05 01:42:09;;;;;;;0.73;0.20;;;18.60;54.40;;;;;;5077241;28;20474;-41
2021/11/05 01:44:37;;;;;;;0.43;0.03;;;18.60;54.40;;;;;;5075894;28;20043;-41
2021/11/05 01:47:05;;;;;;;1.02;0.10;;;18.60;54.40;;;;;;5077870;28;20137;-41
2021/11/05 01:49:32;;;;;;;0.38;0.32;;;18.60;54.40;;;;;;5069588;28;20090;-41
2021/11/05 01:51:59;;;;;;;1.38;0.40;;;18.60;54.40;;;;;;5076561;28;20044;-41
2021/11/05 01:54:26;;;;;;;0.25;0.22;;;18.60;54.40;;;;;;5076227;28;20097;-41
2021/11/05 01:56:53;;;;;;;3.63;0.10;;;18.60;54.40;;;;;;5076142;28;20041;-40
2021/11/05 01:59:23;;;;;;;0.35;0.10;;;18.60;54.30;;;;;;5079668;28;20039;-41
2021/11/05 02:01:51;;;;;;;0.63;0.10;;;18.60;54.30;;;;;;5060664;28;20105;-41
2021/11/05 02:04:18;;;;;;;1.63;0.10;;;18.60;54.40;;;;;;5073193;28;20044;-41
2021/11/05 02:06:47;;;;;;;0.85;0.30;;;18.60;54.30;;;;;;5073299;28;20058;-41
2021/11/05 02:09:16;;;;;;;0.85;0.10;;;18.60;54.30;;;;;;5073983;28;20036;-41
2021/11/05 02:11:43;;;;;;;0.75;0.10;;;18.60;54.30;;;;;;5078676;28;20076;-41
2021/11/05 02:14:13;;;;;;;0.43;0.10;;;18.60;54.30;;;;;;5079996;28;20050;-41
2021/11/05 02:16:44;;;;;;;2.63;0.10;;;18.60;54.40;;;;;;5068660;28;20040;-41
2021/11/05 02:19:13;;;;;;;0.88;0.13;;;18.60;54.30;;;;;;5074005;28;20599;-41
2021/11/05 02:21:44;;;;;;;0.85;0.05;;;18.60;54.30;;;;;;5074738;28;20051;-41
2021/11/05 02:24:12;;;;;;;0.50;0.10;;;18.60;54.30;;;;;;5076609;28;20070;-41
2021/11/05 02:26:40;;;;;;;7.80;0.85;;;18.60;54.30;;;;;;5072490;28;20040;-41
2021/11/05 02:29:07;;;;;;;0.10;0.10;;;18.60;54.30;;;;;;5079226;28;20427;-41
2021/11/05 02:31:35;;;;;;;2.25;0.20;;;18.50;54.20;;;;;;5072174;28;20066;-41
2021/11/05 02:34:02;;;;;;;1.02;0.10;;;18.50;54.20;;;;;;5074890;28;20045;-41
2021/11/05 02:36:30;;;;;;;2.35;0.10;;;18.60;54.30;;;;;;5071063;28;20036;-41
2021/11/05 02:38:59;;;;;;;1.98;0.10;;;18.50;54.20;;;;;;5075391;28;20125;-42
2021/11/05 02:41:27;;;;;;;2.45;0.10;;;18.60;54.20;;;;;;5080656;28;20052;-42
2021/11/05 02:43:54;;;;;;;0.82;0.20;;;18.60;54.30;;;;;;5079079;28;20051;-41
2021/11/05 02:46:21;;;;;;;1.55;0.10;;;18.50;54.20;;;;;;5073485;28;20131;-41
2021/11/05 02:48:48;;;;;;;2.40;0.15;;;18.50;54.20;;;;;;5074461;28;20075;-41
2021/11/05 02:51:16;;;;;;;0.57;0.10;;;18.50;54.20;;;;;;5079958;28;20454;-41
2021/11/05 02:53:43;;;;;;;2.05;0.10;;;18.50;54.20;;;;;;5081204;28;20044;-40
2021/11/05 02:56:12;;;;;;;3.40;0.10;;;18.50;54.20;;;;;;5083956;28;20117;-40
2021/11/05 02:58:39;;;;;;;0.52;0.52;;;18.50;54.20;;;;;;5073615;28;20051;-40
2021/11/05 03:01:06;;;;;;;1.90;0.10;;;18.50;54.20;;;;;;5078740;28;20072;-40
2021/11/05 03:03:33;;;;;;;1.15;0.10;;;18.50;54.10;;;;;;5078985;28;20078;-40
2021/11/05 03:06:00;;;;;;;3.65;0.10;;;18.50;54.10;;;;;;5077854;28;20099;-40
2021/11/05 03:08:27;;;;;;;0.57;0.10;;;18.50;54.10;;;;;;5079939;28;20127;-40
2021/11/05 03:10:54;;;;;;;3.90;0.70;;;18.50;54.10;;;;;;5079257;28;20146;-41
2021/11/05 03:13:23;;;;;;;1.23;0.17;;;18.50;54.10;;;;;;5075789;28;20070;-41
2021/11/05 03:15:50;;;;;;;0.20;0.10;;;18.50;54.10;;;;;;5078611;28;20040;-40
2021/11/05 03:18:18;;;;;;;0.68;0.15;;;18.50;54.10;;;;;;5075615;28;20043;-41
2021/11/05 03:20:47;;;;;;;0.45;0.10;;;18.50;54.10;;;;;;5081653;28;20052;-41
2021/11/05 03:23:15;;;;;;;3.95;0.38;;;18.50;54.10;;;;;;5082831;28;20048;-41
2021/11/05 03:25:43;;;;;;;2.58;0.40;;;18.50;54.10;;;;;;5076221;28;20052;-41
2021/11/05 03:28:10;;;;;;;0.35;0.15;;;18.50;54.10;;;;;;5075462;28;20535;-41
2021/11/05 03:30:38;;;;;;;2.33;0.10;;;18.50;54.00;;;;;;5077609;28;20044;-40
2021/11/05 03:33:05;;;;;;;0.80;0.70;;;18.50;54.10;;;;;;5072671;28;20591;-41
2021/11/05 03:35:32;;;;;;;0.70;0.10;;;18.50;54.10;;;;;;5078881;28;20044;-41
2021/11/05 03:37:59;;;;;;;0.38;0.38;;;18.50;54.00;;;;;;5080097;28;20032;-41
2021/11/05 03:40:27;;;;;;;1.48;0.28;;;18.40;54.00;;;;;;5071546;28;20411;-41
2021/11/05 03:42:54;;;;;;;1.23;0.30;;;18.40;54.00;;;;;;5077204;28;20048;-41
2021/11/05 03:45:21;;;;;;;4.32;0.10;;;18.40;54.00;;;;;;5079345;28;20064;-41
2021/11/05 03:47:50;;;;;;;1.17;0.30;;;18.50;54.00;;;;;;5080349;28;20572;-41
2021/11/05 03:50:17;;;;;;;0.30;0.05;;;18.50;54.00;;;;;;5079642;28;20046;-41
2021/11/05 03:52:44;;;;;;;1.30;0.10;;;18.40;53.90;;;;;;5077157;28;20044;-42
2021/11/05 03:55:12;;;;;;;1.60;0.10;;;18.40;53.90;;;;;;5075670;28;20122;-41
2021/11/05 03:57:39;;;;;;;1.27;0.20;;;18.50;53.90;;;;;;5075259;28;20826;-41
2021/11/05 04:00:08;;;;;;;0.47;0.10;;;18.40;53.90;;;;;;5074859;28;20041;-41
2021/11/05 04:02:35;;;;;;;0.75;0.17;;;18.40;53.90;;;;;;5082415;28;20114;-41
2021/11/05 04:05:05;;;;;;;2.30;0.10;;;18.40;53.90;;;;;;5078134;28;20438;-41
2021/11/05 04:07:32;;;;;;;0.68;0.05;;;18.50;53.90;;;;;;5076499;28;20072;-42
2021/11/05 04:09:59;;;;;;;1.20;0.25;;;18.50;53.90;;;;;;5075340;28;20048;-42
2021/11/05 04:12:27;;;;;;;0.20;0.10;;;18.40;53.80;;;;;;5078640;28;20036;-41
2021/11/05 04:14:54;;;;;;;2.10;0.20;;;18.40;53.90;;;;;;5074533;28;20896;-41
2021/11/05 04:17:21;;;;;;;0.32;0.10;;;18.40;53.80;;;;;;5082081;28;20525;-41
2021/11/05 04:19:48;;;;;;;0.73;0.55;;;18.40;53.80;;;;;;5073548;28;20036;-42
2021/11/05 04:22:16;;;;;;;0.55;0.10;;;18.40;53.80;;;;;;5072965;28;20047;-42
2021/11/05 04:24:44;;;;;;;0.25;0.00;;;18.40;53.80;;;;;;5080145;28;20044;-41
2021/11/05 04:27:11;;;;;;;1.10;0.10;;;18.50;53.80;;;;;;5081129;28;20409;-41
2021/11/05 04:29:38;;;;;;;1.60;0.00;;;18.40;53.80;;;;;;5081214;28;20067;-41
2021/11/05 04:32:06;;;;;;;1.08;0.10;;;18.40;53.70;;;;;;5078329;28;20039;-41
2021/11/05 04:34:34;;;;;;;1.55;0.20;;;18.40;53.70;;;;;;5071738;28;20547;-42
2021/11/05 04:37:01;;;;;;;0.20;0.10;;;18.40;53.70;;;;;;5075139;28;20572;-42
2021/11/05 04:39:29;;;;;;;1.55;0.40;;;18.50;53.80;;;;;;5078022;28;20047;-41
2021/11/05 04:41:56;;;;;;;0.10;0.05;;;18.50;53.80;;;;;;5071805;28;20179;-41
2021/11/05 04:44:23;;;;;;;0.65;0.10;;;18.40;53.70;;;;;;5079525;28;20129;-41
2021/11/05 04:46:51;;;;;;;0.38;0.35;;;18.40;53.70;;;;;;5075049;28;20424;-41
2021/11/05 04:49:18;;;;;;;1.23;0.10;;;18.50;53.80;;;;;;5069843;28;20033;-42
2021/11/05 04:51:45;;;;;;;1.98;0.10;;;18.50;53.80;;;;;;5075859;28;20044;-41
2021/11/05 04:54:12;;;;;;;0.38;0.10;;;18.40;53.70;;;;;;5077427;28;20049;-42
2021/11/05 04:56:40;;;;;;;1.45;0.10;;;18.40;53.70;;;;;;5081014;28;20832;-41
2021/11/05 04:59:08;;;;;;;1.17;0.25;;;18.40;53.60;;;;;;5077125;28;20050;-41
2021/11/05 05:01:35;;;;;;;1.02;0.00;;;18.40;53.60;;;;;;5074621;28;20139;-41
2021/11/05 05:04:02;;;;;;;1.38;0.10;;;18.40;53.60;;;;;;5073364;28;20163;-41
2021/11/05 05:06:29;;;;;;;0.20;0.10;;;18.40;53.60;;;;;;5080551;28;20051;-41
2021/11/05 05:08:56;;;;;;;1.45;0.10;;;18.40;53.60;;;;;;5072009;28;20270;-41
2021/11/05 05:11:23;;;;;;;1.52;0.10;;;18.40;54.20;;;;;;5078708;28;20047;-41
2021/11/05 05:13:51;;;;;;;1.02;0.10;;;18.50;53.60;;;;;;5073080;28;20055;-41
2021/11/05 05:16:18;;;;;;;0.10;0.10;;;18.40;53.50;;;;;;5079572;28;20044;-41
2021/11/05 05:18:46;;;;;;;1.58;0.17;;;18.40;53.50;;;;;;5061645;28;20077;-41
2021/11/05 05:21:13;;;;;;;0.73;0.10;;;18.40;53.50;;;;;;5064310;28;20125;-41
2021/11/05 05:23:41;;;;;;;0.20;0.05;;;18.40;53.50;;;;;;5073199;28;20052;-41
2021/11/05 05:26:08;;;;;;;1.10;0.00;;;18.40;53.50;;;;;;5075711;28;20037;-41
2021/11/05 05:28:35;;;;;;;2.80;1.60;;;18.40;53.50;;;;;;5074123;28;20606;-41
2021/11/05 05:31:07;;;;;;;0.38;0.08;;;18.40;53.50;;;;;;5072765;28;20036;-41
2021/11/05 05:33:35;;;;;;;0.50;0.10;;;18.40;53.50;;;;;;5062406;28;20118;-42
2021/11/05 05:36:03;;;;;;;2.03;0.10;;;18.40;53.50;;;;;;5064261;28;20037;-41
2021/11/05 05:38:30;;;;;;;1.45;0.10;;;18.40;53.50;;;;;;5075326;28;20040;-41
2021/11/05 05:40:57;;;;;;;0.20;0.10;;;18.40;53.50;;;;;;5073399;28;20055;-41
2021/11/05 05:43:25;;;;;;;0.63;0.63;;;18.40;53.40;;;;;;5074523;28;20814;-40
2021/11/05 05:45:52;;;;;;;1.58;0.10;;;18.40;53.40;;;;;;5073685;28;20041;-41
2021/11/05 05:48:21;;;;;;;0.52;0.30;;;18.40;53.40;;;;;;5080626;28;20032;-40
2021/11/05 05:50:48;;;;;;;0.20;0.03;;;18.40;53.40;;;;;;5072237;28;20041;-41
2021/11/05 05:53:15;;;;;;;0.52;0.15;;;18.40;53.40;;;;;;5081693;28;20593;-41
2021/11/05 05:55:44;;;;;;;2.45;0.10;;;18.40;53.40;;;;;;5072430;28;20055;-42
2021/11/05 05:58:11;;;;;;;1.92;0.25;;;18.40;53.40;;;;;;5074201;28;20037;-41
2021/11/05 06:00:38;;;;;;;1.30;0.10;;;18.40;53.40;;;;;;5072494;28;20035;-42
2021/11/05 06:03:05;;;;;;;0.35;0.32;;;18.40;53.40;;;;;;5078817;28;20397;-41
2021/11/05 06:05:34;;;;;;;1.00;0.10;;;18.40;53.40;;;;;;5079164;28;20420;-41
2021/11/05 06:08:01;;;;;;;0.20;0.05;;;18.40;53.40;;;;;;5080828;28;20040;-41
2021/11/05 06:10:28;;;;;;;0.98;0.20;;;18.40;53.40;;;;;;5074022;28;20407;-41
2021/11/05 06:12:55;;;;;;;1.45;0.10;;;18.40;53.40;;;;;;5072846;28;20079;-41
2021/11/05 06:15:22;;;;;;;1.95;0.10;;;18.40;53.40;;;;;;5076114;28;20548;-41
2021/11/05 06:17:49;;;;;;;0.32;0.10;;;18.40;53.40;;;;;;5077596;28;20793;-41
2021/11/05 06:20:16;;;;;;;0.50;0.13;;;18.40;53.30;;;;;;5081971;28;20036;-41
2021/11/05 06:22:45;;;;;;;0.40;0.40;;;18.40;53.30;;;;;;5073634;28;20059;-42
2021/11/05 06:25:12;;;;;;;1.40;0.17;;;18.40;53.30;;;;;;5078857;28;20040;-41
2021/11/05 06:27:39;;;;;;;1.17;0.10;;;18.40;53.30;;;;;;5079148;28;20036;-41
2021/11/05 06:30:08;;;;;;;1.40;0.50;;;18.40;53.30;;;;;;5079384;28;20048;-41
2021/11/05 06:32:35;;;;;;;1.08;0.10;;;18.40;53.30;;;;;;5079869;28;20045;-41
2021/11/05 06:35:02;;;;;;;0.55;0.10;;;18.40;53.30;;;;;;5078016;28;20458;-41
2021/11/05 06:37:29;;;;;;;0.73;0.28;;;18.40;53.20;;;;;;5073058;28;20075;-42
2021/11/05 06:39:57;;;;;;;0.55;0.10;;;18.40;53.80;;;;;;5080566;28;20126;-41
2021/11/05 06:42:25;;;;;;;1.75;0.95;;;18.40;53.20;;;;;;5076295;28;20041;-41
2021/11/05 06:44:53;;;;;;;2.20;0.10;;;18.40;53.20;;;;;;5079736;28;20139;-41
2021/11/05 06:47:20;;;;;;;0.50;0.00;;;18.40;53.20;;;;;;5085477;28;20064;-41
2021/11/05 06:49:48;;;;;;;1.55;0.30;;;18.40;53.20;;;;;;5076755;28;20500;-43
2021/11/05 06:52:15;;;;;;;0.75;0.20;;;18.40;53.20;;;;;;5076649;28;20044;-41
2021/11/05 06:54:42;;;;;;;0.10;0.10;;;18.40;53.20;;;;;;5073298;28;20334;-41
2021/11/05 06:57:10;;;;;;;0.17;0.10;;;18.40;53.20;;;;;;5080438;28;20128;-42
2021/11/05 06:59:37;;;;;;;1.75;0.10;;;18.40;53.10;;;;;;5085148;28;20048;-41
2021/11/05 07:02:06;;;;;;;0.60;0.10;;;18.40;53.10;;;;;;5082432;28;20040;-42
2021/11/05 07:04:33;;;;;;;1.40;0.10;;;18.40;53.10;;;;;;5075228;28;20070;-41
2021/11/05 07:07:00;;;;;;;1.10;0.10;;;18.40;53.10;;;;;;5079344;28;20044;-40
2021/11/05 07:09:28;;;;;;;0.10;0.10;;;18.40;53.00;;;;;;5080174;28;20130;-40
2021/11/05 07:11:55;;;;;;;0.28;0.10;;;18.40;53.00;;;;;;5075730;28;20065;-41
2021/11/05 07:14:23;;;;;;;1.08;0.70;;;18.40;53.00;;;;;;5083902;28;20052;-42
2021/11/05 07:16:50;;;;;;;0.20;0.20;;;18.40;53.00;;;;;;5078319;28;20040;-41
2021/11/05 07:19:19;;;;;;;0.20;0.15;;;18.40;53.00;;;;;;5076637;28;20044;-41
2021/11/05 07:21:46;;;;;;;1.38;0.10;;;18.40;53.00;;;;;;5073067;28;20068;-40
2021/11/05 07:24:13;;;;;;;0.13;0.10;;;18.40;53.00;;;;;;5078376;28;20153;-41
2021/11/05 07:26:43;;;;;;;1.27;0.10;;;18.40;53.00;;;;;;5082848;28;20044;-41
2021/11/05 07:29:12;;;;;;;0.70;0.10;;;18.40;53.00;;;;;;5081860;28;20040;-40
2021/11/05 07:31:41;;;;;;;0.10;0.10;;;18.40;53.00;;;;;;5074262;28;20553;-40
2021/11/05 07:34:09;;;;;;;1.27;0.10;;;18.40;52.90;;;;;;5076538;28;20068;-40
2021/11/05 07:36:36;;;;;;;0.20;0.10;;;18.40;52.90;;;;;;5078189;28;20040;-40
2021/11/05 07:39:07;;;;;;;0.65;0.13;;;18.40;52.90;;;;;;5076970;28;20036;-40
2021/11/05 07:41:34;;;;;;;1.27;0.10;;;18.40;53.40;;;;;;5079314;28;20127;-41
2021/11/05 07:44:01;;;;;;;0.47;0.10;;;18.40;52.80;;;;;;5079070;28;20036;-41
2021/11/05 07:46:28;;;;;;;2.67;0.30;;;18.40;52.80;;;;;;5074550;28;20054;-41
2021/11/05 07:48:57;;;;;;;0.88;0.82;;;18.40;53.40;;;;;;5081652;28;20040;-40
2021/11/05 07:51:24;;;;;;;5.32;0.65;;;18.40;52.80;;;;;;5079177;28;20039;-43
2021/11/05 07:53:51;;;;;;;1.00;0.77;;;18.40;52.80;;;;;;5079051;28;20041;-41
2021/11/05 07:56:19;;;;;;;6.95;0.10;;;18.40;52.80;;;;;;5082716;28;20040;-40
2021/11/05 07:58:45;;;;;;;6.00;0.30;;;18.40;52.70;;;;;;5078131;28;20075;-41
2021/11/05 08:01:13;;;;;;;6.43;0.50;;;18.40;52.80;;;;;;5075785;28;20117;-42
2021/11/05 08:03:41;;;;;;;8.38;0.10;;;18.40;52.70;;;;;;5077481;28;20500;-41
2021/11/05 08:06:09;;;;;;;5.75;0.17;;;18.50;52.70;;;;;;5076983;28;20043;-41
2021/11/05 08:08:36;;;;;;;5.20;1.00;;;18.40;52.70;;;;;;5082132;28;20055;-41
2021/11/05 08:11:04;;;;;;;3.50;0.47;;;18.50;52.70;;;;;;5079817;28;20591;-41
2021/11/05 08:13:31;;;;;;;2.95;0.25;;;18.50;52.70;;;;;;5071058;28;20036;-42
2021/11/05 08:15:58;;;;;;;2.38;0.20;;;18.50;52.60;;;;;;5077785;28;20048;-40
2021/11/05 08:18:26;;;;;;;10.80;0.20;;;18.50;53.20;;;;;;5078735;28;20123;-40
2021/11/05 08:20:53;;;;;;;5.47;0.17;;;18.50;52.60;;;;;;5079515;28;20040;-40
2021/11/05 08:23:22;;;;;;;5.18;0.40;;;18.50;52.60;;;;;;5082104;28;20048;-40
2021/11/05 08:25:49;;;;;;;2.10;0.20;;;18.50;52.50;;;;;;5075234;28;20063;-40
2021/11/05 08:28:17;;;;;;;1.20;0.17;;;18.50;52.50;;;;;;5073867;28;20051;-40
2021/11/05 08:30:45;;;;;;;6.82;0.40;;;18.50;52.50;;;;;;5079444;28;20047;-40
2021/11/05 08:33:12;;;;;;;6.30;0.70;;;18.50;52.40;;;;;;5066903;28;20033;-41
2021/11/05 08:35:41;;;;;;;5.68;0.70;;;18.50;52.40;;;;;;5081595;28;20047;-42
2021/11/05 08:38:15;;;;;;;5.72;0.55;;;18.50;52.40;;;;;;5079424;28;20522;-41
2021/11/05 08:40:44;;;;;;;3.55;0.10;;;18.50;52.40;;;;;;5074334;28;20056;-41
2021/11/05 08:43:12;;;;;;;3.67;0.20;;;18.60;52.50;;;;;;5075583;28;20105;-41
2021/11/05 08:45:39;;;;;;;2.05;0.38;;;18.60;52.40;;;;;;5078003;28;20044;-41
2021/11/05 08:48:06;;;;;;;5.10;0.80;;;18.60;52.50;;;;;;5077899;28;20044;-42
2021/11/05 08:50:35;;;;;;;2.33;0.30;;;18.60;52.30;;;;;;5082354;28;20040;-41
2021/11/05 08:53:03;;;;;;;2.30;0.10;;;18.60;52.30;;;;;;5081377;28;20122;-42
2021/11/05 08:55:31;;;;;;;3.05;0.10;;;18.60;52.30;;;;;;5076222;28;20152;-42
2021/11/05 08:58:00;;;;;;;9.52;0.28;;;18.60;52.20;;;;;;5076774;28;20703;-41
2021/11/05 09:00:32;;;;;;;4.95;1.13;;;18.60;52.20;;;;;;5079732;28;20048;-42
2021/11/05 09:03:01;;;;;;;2.95;0.50;;;18.60;52.10;;;;;;5074427;28;20063;-41
2021/11/05 09:05:28;;;;;;;3.15;0.50;;;18.60;52.70;;;;;;5078741;28;20040;-41
2021/11/05 09:07:56;;;;;;;6.47;0.57;;;18.60;52.10;;;;;;5076044;28;20133;-42
2021/11/05 09:10:24;;;;;;;3.15;0.60;;;18.60;52.00;;;;;;5073387;28;20047;-41
2021/11/05 09:12:51;;;;;;;1.60;0.10;;;18.60;52.00;;;;;;5078734;28;20055;-41
2021/11/05 09:15:22;;;;;;;1.58;0.20;;;18.60;52.00;;;;;;5073775;28;20053;-41
2021/11/05 09:17:52;;;;;;;1.42;0.20;;;18.70;52.00;;;;;;5078862;28;20048;-40
2021/11/05 09:20:20;;;;;;;2.22;0.10;;;18.70;52.00;;;;;;5082050;28;20054;-42
2021/11/05 09:22:48;;;;;;;2.97;0.30;;;18.70;52.60;;;;;;5074781;28;20113;-41
2021/11/05 09:25:15;;;;;;;3.42;0.40;;;18.70;51.90;;;;;;5073428;28;20500;-40
2021/11/05 09:27:44;;;;;;;2.60;0.20;;;18.70;51.90;;;;;;5075113;28;20036;-41
2021/11/05 09:30:12;;;;;;;4.07;0.57;;;18.70;51.90;;;;;;5076630;28;20068;-41
2021/11/05 09:32:41;;;;;;;3.90;0.68;;;18.70;51.90;;;;;;5075701;28;20059;-41
2021/11/05 09:35:09;;;;;;;1.10;0.30;;;18.70;51.80;;;;;;5080167;28;20054;-41
2021/11/05 09:37:38;;;;;;;1.00;0.75;;;18.70;51.80;;;;;;5070107;28;20093;-41
2021/11/05 09:40:07;;;;;;;2.72;0.20;;;18.80;51.80;;;;;;5074320;28;20101;-40
2021/11/05 09:42:35;;;;;;;3.85;0.20;;;18.80;51.70;;;;;;5076091;28;20066;-41
2021/11/05 09:45:02;;;;;;;2.17;0.28;;;18.80;51.70;;;;;;5076033;28;20040;-41
2021/11/05 09:47:30;;;;;;;3.67;0.55;;;18.80;51.60;;;;;;5079635;28;20039;-41
2021/11/05 09:49:58;;;;;;;2.70;1.17;;;18.80;51.50;;;;;;5078129;28;20047;-41
2021/11/05 09:52:26;;;;;;;4.65;0.50;;;18.80;51.50;;;;;;5073550;28;20089;-40
2021/11/05 09:54:56;;;;;;;3.05;0.17;;;18.80;51.50;;;;;;5071368;28;20055;-41
2021/11/05 09:57:24;;;;;;;2.58;0.82;;;18.80;51.40;;;;;;5073104;28;20041;-40
2021/11/05 09:59:51;;;;;;;0.52;0.10;;;18.90;51.50;;;;;;5077619;28;20068;-41
2021/11/05 10:02:18;;;;;;;2.67;0.40;;;18.90;51.40;;;;;;5080073;28;20090;-41
2021/11/05 10:04:45;;;;;;;1.75;0.30;;;18.80;51.30;;;;;;5074664;28;20140;-41
2021/11/05 10:07:14;;;;;;;3.40;0.20;;;18.90;51.30;;;;;;5073164;28;20059;-41
2021/11/05 10:09:44;;;;;;;2.10;0.15;;;18.90;51.30;;;;;;5074362;28;20068;-42
2021/11/05 10:12:13;;;;;;;1.40;0.10;;;18.90;51.20;;;;;;5078030;28;20552;-41
2021/11/05 10:14:41;;;;;;;2.25;0.20;;;19.00;51.20;;;;;;5074817;28;20557;-40
2021/11/05 10:17:10;;;;;;;3.30;0.28;;;19.00;51.20;;;;;;5078905;28;20044;-40
2021/11/05 10:19:48;;;;;;;4.15;1.55;;;19.00;51.10;;;;;;5071855;28;20832;-40
2021/11/05 10:22:46;;;;;;;3.72;0.60;;;19.00;51.00;;;;;;5076259;28;20101;-41
2021/11/05 10:25:28;;;;;;;2.05;0.73;;;19.00;50.90;;;;;;5073769;28;20129;-42
2021/11/05 10:28:10;;;;;;;2.17;0.73;;;19.10;51.00;;;;;;5070225;28;20090;-42
2021/11/05 10:30:40;;;;;;;1.60;0.15;;;19.10;50.90;;;;;;5064775;28;20041;-42
2021/11/05 10:33:08;;;;;;;0.73;0.20;;;19.10;50.90;;;;;;5070631;28;20622;-40
2021/11/05 10:35:38;;;;;;;3.10;0.75;;;19.10;50.80;;;;;;5081500;28;20040;-40
2021/11/05 10:38:08;;;;;;;4.07;0.10;;;19.10;50.70;;;;;;5070591;28;20109;-40
2021/11/05 10:40:38;;;;;;;2.83;0.20;;;19.10;50.60;;;;;;5072571;28;20151;-40
2021/11/05 10:43:07;;;;;;;2.40;0.17;;;19.10;50.60;;;;;;5073103;28;20045;-42
2021/11/05 10:45:37;;;;;;;1.17;0.10;;;19.20;50.50;;;;;;5073845;28;20492;-40
2021/11/05 10:48:10;;;;;;;2.70;0.30;;;19.20;50.50;;;;;;5073242;28;20037;-41
2021/11/05 10:50:50;;;;;;;0.85;0.28;;;19.20;50.40;;;;;;5079892;28;20389;-40
2021/11/05 10:53:21;;;;;;;1.00;0.30;;;19.20;50.40;;;;;;5081299;28;20043;-40
2021/11/05 10:55:50;;;;;;;2.13;0.52;;;19.20;50.30;;;;;;5074110;28;20102;-41
2021/11/05 10:58:24;;;;;;;5.22;0.30;;;19.20;50.30;;;;;;5073235;28;20044;-41
2021/11/05 11:00:55;;;;;;;1.95;0.60;;;19.30;50.20;;;;;;5073149;28;20068;-40
2021/11/05 11:03:25;;;;;;;5.32;0.65;;;19.30;50.20;;;;;;5078379;28;20075;-41
2021/11/05 11:05:54;;;;;;;2.58;0.40;;;19.30;50.10;;;;;;5071095;28;20378;-41
2021/11/05 11:08:27;;;;;;;3.38;0.20;;;19.30;50.10;;;;;;5082710;28;20119;-41
2021/11/05 11:10:58;;;;;;;4.05;1.08;;;19.40;50.20;;;;;;5078335;28;20964;-40
2021/11/05 11:13:37;;;;;;;1.98;0.20;;;19.40;50.20;;;;;;5080191;28;20085;-40
2021/11/05 11:16:08;;;;;;;4.68;0.38;;;19.40;50.10;;;;;;5077527;28;20068;-40
2021/11/05 11:18:51;;;;;;;1.63;0.10;;;19.50;50.00;;;;;;5076520;28;20036;-40
2021/11/05 11:21:20;;;;;;;4.13;1.40;;;19.50;49.80;;;;;;5079500;28;20063;-45
2021/11/05 11:23:48;;;;;;;2.00;0.47;;;19.50;49.90;;;;;;5081630;28;20037;-40
2021/11/05 11:26:16;;;;;;;2.53;0.32;;;19.60;49.80;;;;;;5084855;28;20062;-41
2021/11/05 11:28:44;;;;;;;2.03;0.25;;;19.60;49.70;;;;;;5073155;28;20093;-40
2021/11/05 11:31:13;;;;;;;2.40;0.13;;;19.70;49.70;;;;;;5077950;28;20051;-42
2021/11/05 11:33:41;;;;;;;1.75;0.30;;;19.70;49.50;;;;;;5078159;28;20097;-40
2021/11/05 11:36:10;;;;;;;1.70;0.20;;;19.70;49.30;;;;;;5078215;28;20056;-42
2021/11/05 11:38:37;;;;;;;2.40;0.10;;;19.80;49.40;;;;;;5071243;28;20406;-42
2021/11/05 11:41:07;;;;;;;2.40;0.25;;;19.80;49.40;;;;;;5081713;28;20048;-42
2021/11/05 11:43:35;;;;;;;2.30;0.38;;;19.80;49.20;;;;;;5075673;28;20119;-42
2021/11/05 11:46:02;;;;;;;0.77;0.22;;;19.90;49.10;;;;;;5079030;28;20416;-42
2021/11/05 11:48:44;;;;;;;4.28;0.20;;;19.90;49.00;;;;;;5074787;28;20046;-42
2021/11/05 11:51:30;;;;;;;1.73;0.40;;;19.90;49.00;;;;;;5079231;28;20048;-42
2021/11/05 11:54:01;;;;;;;0.82;0.15;;;19.90;49.10;;;;;;5078922;28;20040;-42
2021/11/05 11:56:33;;;;;;;0.57;0.10;;;20.00;49.10;;;;;;5081602;28;20082;-41
2021/11/05 11:59:03;;;;;;;2.85;0.20;;;20.10;49.00;;;;;;5080610;28;20042;-41
2021/11/05 12:01:32;;;;;;;3.13;0.20;;;20.10;48.90;;;;;;5074173;28;20605;-40
2021/11/05 12:04:02;;;;;;;2.30;0.10;;;20.20;48.70;;;;;;5078621;28;20062;-42
2021/11/05 12:07:06;;;;;;;1.75;0.20;;;20.20;48.50;;;;;;5078579;28;20047;-42
2021/11/05 12:09:35;;;;;;;3.15;0.15;;;20.30;48.30;;;;;;5067813;28;20068;-42
2021/11/05 12:12:31;;;;;;;0.68;0.20;;;20.30;48.30;;;;;;5078285;28;20048;-42
2021/11/05 12:15:15;;;;;;;1.60;0.20;;;20.40;48.10;;;;;;5016058;28;20054;-42
2021/11/05 12:18:11;;;;;;;0.90;0.65;;;20.50;48.10;;;;;;5019134;28;20077;-41
2021/11/05 12:20:43;;;;;;;0.10;0.10;;;20.60;48.00;;;;;;5014232;28;20068;-41
2021/11/05 12:23:17;;;;;;;1.40;0.20;;;20.60;47.90;;;;;;5021211;28;20119;-42
2021/11/05 12:25:47;;;;;;;0.52;0.20;;;20.60;47.70;;;;;;5022091;28;20616;-41
2021/11/05 12:28:18;;;;;;;1.05;0.13;;;20.60;47.60;;;;;;5008273;28;20049;-41
2021/11/05 12:30:46;;;;;;;0.95;0.10;;;20.70;47.40;;;;;;5013621;28;20046;-41
2021/11/05 12:33:29;;;;;;;0.40;0.35;;;20.70;47.30;;;;;;5015631;28;20097;-41
2021/11/05 12:35:58;;;;;;;1.27;0.32;;;20.70;47.20;;;;;;5013329;28;20065;-42
2021/11/05 12:38:25;;;;;;;1.45;0.10;;;20.70;47.30;;;;;;5010939;28;20077;-41
2021/11/05 12:40:59;;;;;;;1.80;0.28;;;20.70;47.20;;;;;;5010938;28;20057;-43
2021/11/05 12:43:40;;;;;;;1.95;0.65;;;20.70;47.10;;;;;;5006646;28;20041;-41
2021/11/05 12:46:14;;;;;;;3.10;0.30;;;20.70;46.90;;;;;;5013505;28;20065;-42
2021/11/05 12:48:56;;;;;;;3.08;0.40;;;20.70;46.80;;;;;;5011284;28;20208;-42
2021/11/05 12:51:26;;;;;;;4.15;0.10;;;20.70;46.40;;;;;;5062631;28;20063;-42
2021/11/05 12:54:00;;;;;;;1.50;0.10;;;20.60;46.30;;;;;;5077971;28;20041;-41
2021/11/05 12:56:29;;;;;;;1.52;0.20;;;20.60;46.20;;;;;;5079515;28;20044;-42